createdAt,value
2023-04-12T00:00:12.002Z,49.14
2023-04-12T00:01:43.816Z,49.35
2023-04-12T00:03:21.387Z,49.16
2023-04-12T00:04:55.791Z,49.33
2023-04-12T00:06:32.523Z,49.42
2023-04-12T00:08:05.337Z,49.52
2023-04-12T00:09:38.221Z,49.46
2023-04-12T00:11:10.020Z,49.57
2023-04-12T00:12:41.777Z,49.50
2023-04-12T00:14:13.362Z,49.31
2023-04-12T00:15:45.519Z,49.44
2023-04-12T00:17:17.182Z,49.49
2023-04-12T00:18:49.002Z,49.73
2023-04-12T00:20:20.649Z,49.65
2023-04-12T00:21:52.423Z,49.81
2023-04-12T00:23:24.170Z,49.67
2023-04-12T00:24:56.007Z,49.74
2023-04-12T00:26:28.023Z,49.81
2023-04-12T00:27:59.865Z,49.87
2023-04-12T00:29:32.172Z,49.91
2023-04-12T00:31:03.902Z,49.87
2023-04-12T00:32:36.679Z,49.89
2023-04-12T00:34:08.244Z,50.35
2023-04-12T00:35:40.100Z,50.16
2023-04-12T00:37:12.174Z,49.84
2023-04-12T00:38:46.062Z,49.72
2023-04-12T00:40:17.814Z,49.84
2023-04-12T00:41:49.587Z,49.94
2023-04-12T00:43:21.407Z,49.96
2023-04-12T00:44:55.606Z,49.93
2023-04-12T00:46:29.623Z,49.96
2023-04-12T00:48:01.715Z,50.03
2023-04-12T00:49:34.822Z,50.02
2023-04-12T00:51:07.140Z,50.15
2023-04-12T00:52:40.515Z,50.00
2023-04-12T00:54:13.055Z,50.01
2023-04-12T00:55:45.232Z,50.03
2023-04-12T00:57:17.105Z,50.40
2023-04-12T00:58:48.993Z,50.28
2023-04-12T01:00:21.221Z,50.13
2023-04-12T01:01:53.215Z,50.53
2023-04-12T01:03:25.142Z,50.51
2023-04-12T01:04:58.863Z,50.16
2023-04-12T01:06:39.261Z,50.71
2023-04-12T01:08:23.309Z,50.64
2023-04-12T01:10:12.715Z,50.23
2023-04-12T01:12:07.325Z,50.46
2023-04-12T01:13:58.118Z,50.53
2023-04-12T01:15:31.924Z,50.49
2023-04-12T01:17:05.539Z,50.28
2023-04-12T01:18:40.969Z,50.75
2023-04-12T01:20:16.332Z,50.65
2023-04-12T01:21:50.778Z,50.40
2023-04-12T01:23:43.087Z,50.59
2023-04-12T01:25:30.194Z,50.71
2023-04-12T01:27:03.538Z,50.63
2023-04-12T01:28:35.795Z,50.74
2023-04-12T01:30:08.689Z,50.59
2023-04-12T01:31:41.221Z,50.63
2023-04-12T01:33:15.495Z,50.70
2023-04-12T01:35:04.748Z,50.79
2023-04-12T01:36:36.402Z,50.24
2023-04-12T01:38:11.434Z,50.91
2023-04-12T01:39:43.269Z,50.64
2023-04-12T01:41:22.143Z,51.02
2023-04-12T01:43:08.956Z,51.06
2023-04-12T01:44:40.872Z,51.11
2023-04-12T01:46:13.215Z,51.08
2023-04-12T01:47:45.215Z,51.07
2023-04-12T01:49:17.118Z,50.59
2023-04-12T01:50:52.180Z,50.98
2023-04-12T01:52:23.689Z,50.70
2023-04-12T01:53:57.990Z,50.35
2023-04-12T01:55:30.395Z,50.85
2023-04-12T01:57:02.628Z,51.07
2023-04-12T01:58:34.709Z,51.01
2023-04-12T02:00:07.973Z,51.32
2023-04-12T02:01:39.542Z,51.22
2023-04-12T02:03:12.557Z,50.96
2023-04-12T02:04:44.686Z,51.07
2023-04-12T02:06:16.559Z,51.10
2023-04-12T02:07:48.239Z,51.47
2023-04-12T02:09:20.137Z,51.35
2023-04-12T02:10:51.987Z,51.44
2023-04-12T02:12:23.858Z,51.39
2023-04-12T02:13:55.760Z,51.48
2023-04-12T02:15:28.596Z,51.44
2023-04-12T02:17:02.609Z,51.39
2023-04-12T02:18:37.450Z,51.28
2023-04-12T02:20:12.459Z,51.39
2023-04-12T02:21:44.572Z,51.52
2023-04-12T02:23:16.403Z,51.54
2023-04-12T02:24:48.385Z,51.50
2023-04-12T02:26:20.430Z,51.47
2023-04-12T02:27:52.479Z,51.86
2023-04-12T02:29:24.400Z,51.73
2023-04-12T02:30:56.004Z,51.77
2023-04-12T02:32:27.695Z,51.27
2023-04-12T02:33:59.459Z,51.94
2023-04-12T02:35:32.102Z,51.61
2023-04-12T02:37:04.846Z,51.89
2023-04-12T02:38:36.728Z,51.17
2023-04-12T02:40:12.860Z,51.56
2023-04-12T02:41:44.959Z,51.37
2023-04-12T02:43:16.731Z,51.56
2023-04-12T02:44:48.896Z,51.45
2023-04-12T02:46:22.245Z,51.64
2023-04-12T02:47:54.364Z,51.90
2023-04-12T02:49:26.865Z,51.55
2023-04-12T02:50:59.015Z,51.60
2023-04-12T02:52:30.715Z,51.35
2023-04-12T02:54:04.478Z,51.68
2023-04-12T02:55:36.938Z,51.83
2023-04-12T02:57:18.752Z,51.52
2023-04-12T02:59:00.008Z,51.36
2023-04-12T03:00:34.842Z,51.83
2023-04-12T03:02:06.589Z,51.69
2023-04-12T03:03:39.471Z,51.69
2023-04-12T03:05:12.365Z,51.73
2023-04-12T03:06:52.612Z,51.92
2023-04-12T03:08:24.545Z,51.83
2023-04-12T03:10:02.386Z,51.74
2023-04-12T03:11:44.508Z,51.83
2023-04-12T03:13:16.412Z,51.99
2023-04-12T03:15:01.083Z,51.98
2023-04-12T03:16:32.833Z,52.08
2023-04-12T03:18:06.215Z,52.16
2023-04-12T03:19:40.501Z,52.40
2023-04-12T03:21:14.612Z,52.23
2023-04-12T03:22:48.993Z,52.40
2023-04-12T03:24:20.831Z,52.25
2023-04-12T03:25:52.371Z,52.13
2023-04-12T03:27:26.938Z,52.33
2023-04-12T03:29:02.111Z,52.21
2023-04-12T03:30:36.716Z,52.34
2023-04-12T03:32:20.110Z,52.16
2023-04-12T03:33:51.947Z,52.30
2023-04-12T03:35:23.791Z,52.32
2023-04-12T03:36:55.943Z,52.77
2023-04-12T03:38:27.753Z,51.94
2023-04-12T03:39:59.573Z,52.32
2023-04-12T03:41:31.264Z,52.29
2023-04-12T03:43:05.702Z,52.42
2023-04-12T03:44:37.708Z,52.01
2023-04-12T03:46:12.185Z,52.51
2023-04-12T03:47:44.074Z,52.27
2023-04-12T03:49:16.788Z,51.89
2023-04-12T03:50:48.593Z,52.09
2023-04-12T03:52:20.259Z,51.75
2023-04-12T03:53:52.110Z,52.36
2023-04-12T03:55:24.283Z,51.96
2023-04-12T03:56:56.834Z,52.21
2023-04-12T03:58:28.591Z,52.29
2023-04-12T04:00:00.316Z,52.23
2023-04-12T04:01:32.137Z,51.97
2023-04-12T04:03:04.318Z,52.22
2023-04-12T04:04:37.928Z,52.45
2023-04-12T04:06:09.929Z,52.39
2023-04-12T04:07:41.598Z,52.70
2023-04-12T04:09:13.297Z,52.75
2023-04-12T04:10:44.947Z,52.91
2023-04-12T04:12:16.846Z,52.97
2023-04-12T04:13:48.794Z,52.91
2023-04-12T04:15:20.526Z,52.99
2023-04-12T04:16:52.204Z,52.83
2023-04-12T04:18:23.816Z,52.89
2023-04-12T04:19:55.457Z,52.60
2023-04-12T04:21:27.123Z,52.91
2023-04-12T04:22:58.740Z,53.13
2023-04-12T04:24:30.564Z,53.08
2023-04-12T04:26:05.266Z,53.04
2023-04-12T04:27:38.643Z,53.27
2023-04-12T04:29:10.290Z,53.25
2023-04-12T04:30:42.190Z,53.06
2023-04-12T04:32:13.939Z,53.39
2023-04-12T04:33:45.678Z,53.70
2023-04-12T04:35:17.590Z,53.54
2023-04-12T04:36:49.367Z,52.93
2023-04-12T04:38:25.828Z,53.08
2023-04-12T04:39:57.574Z,53.61
2023-04-12T04:41:30.198Z,53.31
2023-04-12T04:43:01.943Z,53.46
2023-04-12T04:44:36.392Z,53.26
2023-04-12T04:46:08.116Z,53.67
2023-04-12T04:47:40.184Z,53.32
2023-04-12T04:49:12.287Z,53.16
2023-04-12T04:50:44.355Z,53.71
2023-04-12T04:52:16.089Z,52.83
2023-04-12T04:53:47.795Z,52.93
2023-04-12T04:55:21.113Z,52.76
2023-04-12T04:56:52.891Z,53.02
2023-04-12T04:58:24.525Z,52.61
2023-04-12T04:59:56.330Z,52.59
2023-04-12T05:01:28.792Z,52.85
2023-04-12T05:03:00.969Z,53.17
2023-04-12T05:04:33.078Z,53.73
2023-04-12T05:06:04.971Z,53.06
2023-04-12T05:07:39.206Z,52.93
2023-04-12T05:09:11.179Z,53.19
2023-04-12T05:10:44.090Z,53.29
2023-04-12T05:12:15.772Z,53.17
2023-04-12T05:13:47.487Z,53.44
2023-04-12T05:15:22.535Z,53.98
2023-04-12T05:16:54.487Z,53.60
2023-04-12T05:18:26.499Z,52.87
2023-04-12T05:19:58.204Z,52.81
2023-04-12T05:21:30.286Z,53.28
2023-04-12T05:23:01.841Z,53.75
2023-04-12T05:24:35.953Z,53.29
2023-04-12T05:26:07.615Z,53.43
2023-04-12T05:27:39.387Z,53.31
2023-04-12T05:29:11.248Z,53.14
2023-04-12T05:30:43.192Z,53.34
2023-04-12T05:32:15.158Z,52.74
2023-04-12T05:33:46.851Z,53.15
2023-04-12T05:35:19.475Z,52.99
2023-04-12T05:36:51.433Z,53.52
2023-04-12T05:38:24.299Z,53.46
2023-04-12T05:40:10.708Z,53.55
2023-04-12T05:41:42.459Z,52.73
2023-04-12T05:43:24.666Z,53.59
2023-04-12T05:44:56.636Z,53.36
2023-04-12T05:46:28.674Z,53.22
2023-04-12T05:48:01.528Z,52.54
2023-04-12T05:49:35.568Z,52.85
2023-04-12T05:51:10.306Z,52.77
2023-04-12T05:52:42.502Z,52.12
2023-04-12T05:54:14.371Z,52.49
2023-04-12T05:55:46.208Z,52.69
2023-04-12T05:57:24.992Z,52.30
2023-04-12T05:58:57.970Z,52.78
2023-04-12T06:00:30.473Z,52.74
2023-04-12T06:02:02.536Z,52.69
2023-04-12T06:03:34.873Z,52.67
2023-04-12T06:05:10.947Z,52.74
2023-04-12T06:06:43.682Z,52.74
2023-04-12T06:08:17.659Z,51.88
2023-04-12T06:09:52.903Z,52.59
2023-04-12T06:11:34.106Z,51.86
2023-04-12T06:13:09.011Z,52.13
2023-04-12T06:14:40.734Z,51.67
2023-04-12T06:16:13.816Z,51.50
2023-04-12T06:17:45.960Z,51.79
2023-04-12T06:19:26.764Z,51.23
2023-04-12T06:20:58.429Z,51.63
2023-04-12T06:22:30.065Z,52.15
2023-04-12T06:24:01.736Z,52.49
2023-04-12T06:25:33.797Z,51.54
2023-04-12T06:27:05.811Z,52.16
2023-04-12T06:28:37.736Z,52.07
2023-04-12T06:30:09.659Z,51.77
2023-04-12T06:31:41.591Z,52.01
2023-04-12T06:33:13.619Z,52.47
2023-04-12T06:34:45.580Z,52.11
2023-04-12T06:36:17.413Z,51.48
2023-04-12T06:37:49.554Z,52.23
2023-04-12T06:39:21.301Z,51.62
2023-04-12T06:40:53.045Z,51.10
2023-04-12T06:42:24.735Z,51.11
2023-04-12T06:43:56.310Z,51.19
2023-04-12T06:45:28.414Z,51.33
2023-04-12T06:47:00.503Z,51.40
2023-04-12T06:48:32.087Z,50.87
2023-04-12T06:50:03.933Z,51.29
2023-04-12T06:51:35.826Z,51.05
2023-04-12T06:53:07.592Z,51.21
2023-04-12T06:54:39.807Z,50.97
2023-04-12T06:56:11.327Z,51.40
2023-04-12T06:57:43.431Z,51.13
2023-04-12T06:59:15.432Z,51.44
2023-04-12T07:00:47.157Z,50.83
2023-04-12T07:02:18.990Z,51.16
2023-04-12T07:03:50.957Z,51.43
2023-04-12T07:05:22.803Z,50.90
2023-04-12T07:06:54.674Z,50.98
2023-04-12T07:08:27.464Z,50.86
2023-04-12T07:10:00.711Z,51.37
2023-04-12T07:11:32.274Z,51.11
2023-04-12T07:13:07.306Z,51.00
2023-04-12T07:14:38.961Z,50.95
2023-04-12T07:16:10.904Z,50.28
2023-04-12T07:17:42.962Z,50.27
2023-04-12T07:19:14.637Z,51.05
2023-04-12T07:20:50.728Z,50.49
2023-04-12T07:22:22.843Z,50.33
2023-04-12T07:23:55.096Z,50.87
2023-04-12T07:25:26.873Z,51.18
2023-04-12T07:26:58.929Z,51.25
2023-04-12T07:28:30.600Z,50.70
2023-04-12T07:30:02.431Z,50.72
2023-04-12T07:31:33.965Z,51.25
2023-04-12T07:33:18.626Z,50.59
2023-04-12T07:34:52.366Z,50.47
2023-04-12T07:36:23.951Z,50.47
2023-04-12T07:37:56.054Z,51.00
2023-04-12T07:39:30.068Z,51.00
2023-04-12T07:41:01.977Z,50.64
2023-04-12T07:42:33.670Z,50.36
2023-04-12T07:44:05.477Z,50.13
2023-04-12T07:45:40.633Z,50.55
2023-04-12T07:47:12.499Z,50.31
2023-04-12T07:48:44.362Z,50.73
2023-04-12T07:50:16.045Z,50.64
2023-04-12T07:51:47.805Z,49.85
2023-04-12T07:53:24.780Z,50.32
2023-04-12T07:55:50.876Z,50.01
2023-04-12T07:57:03.642Z,50.44
2023-04-12T07:58:35.450Z,49.84
2023-04-12T08:00:07.816Z,49.95
2023-04-12T08:01:39.523Z,49.60
2023-04-12T08:03:14.990Z,50.04
2023-04-12T08:04:47.044Z,49.11
2023-04-12T08:06:18.882Z,49.76
2023-04-12T08:07:50.496Z,50.15
2023-04-12T08:09:22.123Z,50.33
2023-04-12T08:10:53.802Z,50.36
2023-04-12T08:12:25.539Z,49.45
2023-04-12T08:13:57.379Z,49.49
2023-04-12T08:15:29.721Z,49.74
2023-04-12T08:17:01.599Z,49.64
2023-04-12T08:18:33.317Z,50.11
2023-04-12T08:20:05.360Z,49.29
2023-04-12T08:21:36.865Z,49.85
2023-04-12T08:23:08.662Z,49.85
2023-04-12T08:24:40.254Z,49.56
2023-04-12T08:26:11.963Z,49.92
2023-04-12T08:27:43.695Z,49.90
2023-04-12T08:29:15.717Z,49.95
2023-04-12T08:30:47.339Z,50.11
2023-04-12T08:32:21.920Z,49.67
2023-04-12T08:33:54.012Z,49.11
2023-04-12T08:35:25.659Z,49.32
2023-04-12T08:37:00.419Z,49.50
2023-04-12T08:40:09.547Z,48.95
2023-04-12T08:41:41.765Z,49.06
2023-04-12T08:43:14.590Z,49.86
2023-04-12T08:44:46.445Z,49.88
2023-04-12T08:46:18.368Z,50.14
2023-04-12T08:47:50.073Z,49.37
2023-04-12T08:49:25.314Z,49.22
2023-04-12T08:50:57.727Z,49.24
2023-04-12T08:52:29.891Z,49.47
2023-04-12T08:54:01.926Z,49.23
2023-04-12T08:55:33.768Z,49.49
2023-04-12T08:57:06.666Z,49.26
2023-04-12T08:58:39.601Z,48.92
2023-04-12T09:00:13.128Z,48.90
2023-04-12T09:01:44.940Z,48.66
2023-04-12T09:03:17.092Z,48.55
2023-04-12T09:04:53.619Z,48.46
2023-04-12T09:06:25.893Z,48.33
2023-04-12T09:07:58.112Z,48.34
2023-04-12T09:09:45.554Z,48.13
2023-04-12T09:11:24.492Z,47.80
2023-04-12T09:12:56.487Z,47.55
2023-04-12T09:14:28.297Z,47.72
2023-04-12T09:15:59.990Z,47.14
2023-04-12T09:17:34.102Z,47.51
2023-04-12T09:19:06.039Z,47.19
2023-04-12T09:20:37.900Z,46.93
2023-04-12T09:22:09.865Z,46.65
2023-04-12T09:23:41.614Z,46.54
2023-04-12T09:25:13.530Z,46.54
2023-04-12T09:26:45.406Z,46.50
2023-04-12T09:28:23.078Z,46.20
2023-04-12T09:30:08.082Z,46.21
2023-04-12T09:31:40.207Z,45.98
2023-04-12T09:33:13.152Z,45.93
2023-04-12T09:34:54.831Z,45.93
2023-04-12T09:36:28.352Z,45.66
2023-04-12T09:38:00.018Z,46.13
2023-04-12T09:39:34.870Z,45.71
2023-04-12T09:41:22.252Z,45.78
2023-04-12T09:42:56.770Z,45.57
2023-04-12T09:44:29.778Z,45.52
2023-04-12T09:46:13.888Z,45.14
2023-04-12T09:47:45.859Z,45.22
2023-04-12T09:49:17.881Z,44.93
2023-04-12T09:50:49.584Z,44.90
2023-04-12T09:52:21.499Z,45.18
2023-04-12T09:53:53.085Z,44.94
2023-04-12T09:55:25.646Z,44.76
2023-04-12T09:56:57.720Z,44.73
2023-04-12T09:58:31.619Z,44.60
2023-04-12T10:00:03.927Z,44.62
2023-04-12T10:01:37.090Z,44.49
2023-04-12T10:03:10.002Z,44.14
2023-04-12T10:04:42.325Z,43.95
2023-04-12T10:06:14.669Z,43.93
2023-04-12T10:07:46.801Z,43.86
2023-04-12T10:09:18.586Z,43.78
2023-04-12T10:10:50.279Z,43.65
2023-04-12T10:12:22.152Z,43.57
2023-04-12T10:13:53.982Z,43.73
2023-04-12T10:15:26.065Z,43.70
2023-04-12T10:16:58.848Z,43.51
2023-04-12T10:18:30.589Z,43.47
2023-04-12T10:20:03.438Z,43.23
2023-04-12T10:21:35.231Z,43.24
2023-04-12T10:23:07.231Z,43.03
2023-04-12T10:24:39.293Z,42.60
2023-04-12T10:26:11.068Z,42.46
2023-04-12T10:27:45.811Z,42.67
2023-04-12T10:29:25.444Z,42.55
2023-04-12T10:30:58.088Z,42.24
2023-04-12T10:32:30.165Z,42.21
2023-04-12T10:34:02.682Z,42.14
2023-04-12T10:35:49.600Z,42.19
2023-04-12T10:37:21.643Z,41.85
2023-04-12T10:39:08.064Z,41.63
2023-04-12T10:40:42.000Z,41.25
2023-04-12T10:42:29.667Z,41.22
2023-04-12T10:44:25.494Z,41.33
2023-04-12T10:45:59.244Z,41.25
2023-04-12T10:47:49.348Z,40.78
2023-04-12T10:49:21.218Z,41.07
2023-04-12T10:51:12.503Z,40.72
2023-04-12T10:52:44.182Z,40.52
2023-04-12T10:54:18.986Z,40.01
2023-04-12T10:55:51.326Z,39.82
2023-04-12T10:57:42.820Z,39.83
2023-04-12T10:59:14.752Z,39.56
2023-04-12T11:00:59.962Z,39.43
2023-04-12T11:02:34.610Z,39.35
2023-04-12T11:04:07.695Z,39.23
2023-04-12T11:06:06.384Z,38.80
2023-04-12T11:07:44.870Z,38.56
2023-04-12T11:09:35.293Z,38.54
2023-04-12T11:11:21.002Z,38.18
2023-04-12T11:12:55.181Z,38.20
2023-04-12T11:14:31.368Z,38.08
2023-04-12T11:16:06.469Z,38.00
2023-04-12T11:17:38.310Z,37.84
2023-04-12T11:19:10.029Z,37.65
2023-04-12T11:20:41.939Z,37.59
2023-04-12T11:22:14.368Z,37.65
2023-04-12T11:23:46.675Z,37.61
2023-04-12T11:25:18.765Z,37.52
2023-04-12T11:26:51.133Z,37.36
2023-04-12T11:28:29.795Z,37.41
2023-04-12T11:30:03.598Z,37.24
2023-04-12T11:31:40.331Z,37.31
2023-04-12T11:33:12.109Z,37.10
2023-04-12T11:34:44.566Z,37.08
2023-04-12T11:36:16.585Z,36.89
2023-04-12T11:37:48.366Z,37.08
2023-04-12T11:39:20.241Z,36.89
2023-04-12T11:40:51.888Z,36.68
2023-04-12T11:42:24.120Z,36.06
2023-04-12T11:43:58.434Z,36.12
2023-04-12T11:45:32.730Z,35.98
2023-04-12T11:47:04.882Z,35.87
2023-04-12T11:48:39.158Z,35.75
2023-04-12T11:50:11.250Z,35.93
2023-04-12T11:51:43.061Z,35.78
2023-04-12T11:53:19.880Z,35.89
2023-04-12T11:54:53.826Z,35.70
2023-04-12T11:56:26.280Z,35.62
2023-04-12T11:58:00.174Z,35.42
2023-04-12T11:59:35.496Z,35.40
2023-04-12T12:01:07.937Z,35.45
2023-04-12T12:02:46.670Z,35.29
2023-04-12T12:04:21.326Z,34.94
2023-04-12T12:05:53.666Z,34.70
2023-04-12T12:07:25.918Z,34.79
2023-04-12T12:09:06.856Z,35.00
2023-04-12T12:10:55.471Z,34.82
2023-04-12T12:12:30.973Z,34.69
2023-04-12T12:14:05.731Z,34.54
2023-04-12T12:15:37.873Z,34.51
2023-04-12T12:17:27.733Z,34.57
2023-04-12T12:19:08.426Z,34.36
2023-04-12T12:20:46.277Z,34.36
2023-04-12T12:22:18.852Z,34.38
2023-04-12T12:23:53.222Z,34.11
2023-04-12T12:25:25.185Z,33.95
2023-04-12T12:26:58.602Z,33.91
2023-04-12T12:28:30.428Z,33.86
2023-04-12T12:30:02.769Z,33.83
2023-04-12T12:31:34.872Z,33.71
2023-04-12T12:33:06.994Z,33.71
2023-04-12T12:34:38.932Z,33.71
2023-04-12T12:36:13.848Z,33.76
2023-04-12T12:37:49.988Z,33.77
2023-04-12T12:39:30.880Z,33.71
2023-04-12T12:41:25.563Z,33.73
2023-04-12T12:43:10.056Z,33.59
2023-04-12T12:44:45.077Z,33.32
2023-04-12T12:46:19.053Z,33.22
2023-04-12T12:48:09.504Z,32.98
2023-04-12T12:49:41.918Z,33.02
2023-04-12T12:51:14.723Z,32.93
2023-04-12T12:52:51.966Z,32.85
2023-04-12T12:54:39.332Z,33.01
2023-04-12T12:56:15.977Z,32.89
2023-04-12T12:58:01.810Z,32.68
2023-04-12T12:59:38.137Z,32.71
2023-04-12T13:01:10.162Z,32.82
2023-04-12T13:02:46.035Z,32.73
2023-04-12T13:04:17.828Z,32.65
2023-04-12T13:05:51.213Z,32.64
2023-04-12T13:07:25.892Z,32.66
2023-04-12T13:09:03.354Z,32.23
2023-04-12T13:10:38.108Z,32.41
2023-04-12T13:12:10.986Z,32.22
2023-04-12T13:13:54.991Z,32.33
2023-04-12T13:15:32.495Z,32.14
2023-04-12T13:17:06.658Z,32.02
2023-04-12T13:18:38.348Z,31.68
2023-04-12T13:20:16.599Z,31.84
2023-04-12T13:21:53.192Z,31.52
2023-04-12T13:23:28.410Z,31.46
2023-04-12T13:25:03.230Z,31.25
2023-04-12T13:26:35.450Z,31.35
2023-04-12T13:28:07.546Z,31.33
2023-04-12T13:29:39.278Z,31.40
2023-04-12T13:31:11.375Z,31.49
2023-04-12T13:32:46.977Z,31.39
2023-04-12T13:34:19.549Z,31.24
2023-04-12T13:35:51.299Z,31.58
2023-04-12T13:37:23.013Z,31.23
2023-04-12T13:39:03.446Z,30.95
2023-04-12T13:40:35.610Z,31.01
2023-04-12T13:42:12.966Z,31.13
2023-04-12T13:43:45.421Z,30.97
2023-04-12T13:45:17.301Z,30.87
2023-04-12T13:46:49.862Z,30.92
2023-04-12T13:48:21.904Z,30.75
2023-04-12T13:49:54.634Z,30.90
2023-04-12T13:51:26.992Z,30.90
2023-04-12T13:52:58.648Z,30.66
2023-04-12T13:54:30.935Z,30.42
2023-04-12T13:56:02.841Z,30.47
2023-04-12T13:57:35.667Z,30.39
2023-04-12T13:59:07.495Z,30.39
2023-04-12T14:00:39.409Z,30.51
2023-04-12T14:02:11.461Z,30.29
2023-04-12T14:03:43.426Z,30.39
2023-04-12T14:05:15.604Z,30.33
2023-04-12T14:06:47.960Z,30.31
2023-04-12T14:08:19.953Z,30.19
2023-04-12T14:09:51.718Z,30.09
2023-04-12T14:11:23.856Z,29.95
2023-04-12T14:12:55.824Z,30.00
2023-04-12T14:14:28.449Z,29.85
2023-04-12T14:16:00.154Z,29.93
2023-04-12T14:17:32.777Z,29.88
2023-04-12T14:19:05.552Z,30.08
2023-04-12T14:20:37.211Z,30.17
2023-04-12T14:22:09.016Z,30.04
2023-04-12T14:23:41.956Z,30.07
2023-04-12T14:25:14.242Z,30.14
2023-04-12T14:26:46.131Z,29.98
2023-04-12T14:28:18.124Z,30.11
2023-04-12T14:29:49.901Z,29.95
2023-04-12T14:31:22.292Z,29.81
2023-04-12T14:32:54.302Z,29.93
2023-04-12T14:34:26.172Z,29.87
2023-04-12T14:35:58.845Z,29.89
2023-04-12T14:37:31.345Z,29.96
2023-04-12T14:39:06.979Z,29.95
2023-04-12T14:40:41.218Z,29.95
2023-04-12T14:42:16.418Z,30.06
2023-04-12T14:43:48.624Z,29.81
2023-04-12T14:45:21.913Z,29.93
2023-04-12T14:46:54.036Z,29.96
2023-04-12T14:48:26.412Z,29.85
2023-04-12T14:49:58.168Z,29.74
2023-04-12T14:51:30.247Z,29.81
2023-04-12T14:53:02.053Z,29.71
2023-04-12T14:54:33.994Z,29.56
2023-04-12T14:56:06.340Z,29.47
2023-04-12T14:57:38.833Z,29.44
2023-04-12T14:59:11.030Z,29.35
2023-04-12T15:00:43.022Z,29.29
2023-04-12T15:02:14.824Z,29.24
2023-04-12T15:03:47.888Z,29.30
2023-04-12T15:05:20.138Z,29.17
2023-04-12T15:06:52.471Z,29.28
2023-04-12T15:08:24.846Z,29.19
2023-04-12T15:09:58.748Z,29.08
2023-04-12T15:11:30.516Z,28.91
2023-04-12T15:13:02.165Z,29.00
2023-04-12T15:14:34.073Z,28.98
2023-04-12T15:16:09.254Z,29.04
2023-04-12T15:17:41.037Z,29.03
2023-04-12T15:19:18.131Z,28.97
2023-04-12T15:20:52.887Z,29.23
2023-04-12T15:22:26.643Z,28.96
2023-04-12T15:23:58.718Z,28.99
2023-04-12T15:25:31.135Z,29.19
2023-04-12T15:27:05.841Z,29.26
2023-04-12T15:28:38.706Z,29.17
2023-04-12T15:30:13.019Z,29.06
2023-04-12T15:31:45.366Z,29.10
2023-04-12T15:33:17.311Z,29.16
2023-04-12T15:34:49.475Z,29.02
2023-04-12T15:36:23.382Z,28.92
2023-04-12T15:37:55.729Z,28.84
2023-04-12T15:39:27.531Z,28.85
2023-04-12T15:40:59.762Z,28.86
2023-04-12T15:42:31.508Z,28.76
2023-04-12T15:44:03.898Z,28.85
2023-04-12T15:45:35.675Z,28.89
2023-04-12T15:47:11.509Z,29.12
2023-04-12T15:48:43.942Z,29.06
2023-04-12T15:50:16.213Z,28.99
2023-04-12T15:51:50.383Z,29.02
2023-04-12T15:55:12.156Z,28.71
2023-04-12T15:56:45.375Z,28.71
2023-04-12T15:58:17.992Z,28.74
2023-04-12T15:59:52.910Z,28.81
2023-04-12T16:01:26.741Z,29.13
2023-04-12T16:02:58.698Z,29.23
2023-04-12T16:04:32.113Z,28.71
2023-04-12T16:06:04.169Z,28.77
2023-04-12T16:07:36.234Z,28.95
2023-04-12T16:09:09.034Z,29.17
2023-04-12T16:10:41.716Z,29.33
2023-04-12T16:12:13.527Z,29.07
2023-04-12T16:13:49.270Z,29.39
2023-04-12T16:15:21.828Z,29.41
2023-04-12T16:16:53.780Z,29.56
2023-04-12T16:18:25.525Z,29.51
2023-04-12T16:19:57.211Z,29.02
2023-04-12T16:21:30.475Z,29.48
2023-04-12T16:23:04.198Z,29.26
2023-04-12T16:24:36.568Z,29.24
2023-04-12T16:26:09.658Z,29.47
2023-04-12T16:27:41.498Z,29.54
2023-04-12T16:29:13.826Z,29.32
2023-04-12T16:30:45.995Z,29.25
2023-04-12T16:32:18.138Z,29.28
2023-04-12T16:33:49.916Z,29.46
2023-04-12T16:35:21.830Z,29.28
2023-04-12T16:36:53.603Z,29.69
2023-04-12T16:38:25.342Z,29.51
2023-04-12T16:39:57.262Z,29.73
2023-04-12T16:41:29.065Z,29.62
2023-04-12T16:43:00.938Z,29.81
2023-04-12T16:44:32.756Z,29.82
2023-04-12T16:46:05.237Z,29.62
2023-04-12T16:47:37.504Z,29.45
2023-04-12T16:49:09.326Z,29.70
2023-04-12T16:50:45.024Z,29.90
2023-04-12T16:52:16.895Z,29.78
2023-04-12T16:53:48.665Z,29.93
2023-04-12T16:55:21.102Z,29.70
2023-04-12T16:56:53.398Z,29.95
2023-04-12T16:58:25.229Z,30.01
2023-04-12T16:59:57.771Z,29.74
2023-04-12T17:01:30.334Z,29.95
2023-04-12T17:03:02.262Z,30.08
2023-04-12T17:04:34.607Z,29.78
2023-04-12T17:06:06.570Z,30.10
2023-04-12T17:07:38.879Z,29.92
2023-04-12T17:09:10.711Z,29.94
2023-04-12T17:10:43.371Z,30.06
2023-04-12T17:12:14.950Z,29.99
2023-04-12T17:13:47.022Z,30.15
2023-04-12T17:15:19.194Z,30.05
2023-04-12T17:16:51.285Z,30.27
2023-04-12T17:18:23.267Z,29.89
2023-04-12T17:19:56.167Z,29.99
2023-04-12T17:21:28.174Z,30.18
2023-04-12T17:23:00.504Z,30.27
2023-04-12T17:24:33.006Z,30.21
2023-04-12T17:26:08.941Z,30.45
2023-04-12T17:27:41.364Z,30.25
2023-04-12T17:29:13.925Z,30.54
2023-04-12T17:30:46.222Z,30.62
2023-04-12T17:32:18.470Z,30.41
2023-04-12T17:33:50.197Z,30.55
2023-04-12T17:35:21.851Z,30.24
2023-04-12T17:36:55.401Z,30.77
2023-04-12T17:38:27.139Z,30.71
2023-04-12T17:39:59.028Z,30.87
2023-04-12T17:41:31.288Z,30.53
2023-04-12T17:43:04.006Z,30.92
2023-04-12T17:44:36.102Z,30.89
2023-04-12T17:46:08.305Z,30.64
2023-04-12T17:47:42.928Z,31.06
2023-04-12T17:49:14.986Z,30.62
2023-04-12T17:50:47.293Z,31.36
2023-04-12T17:52:19.370Z,31.29
2023-04-12T17:53:51.479Z,31.09
2023-04-12T17:55:26.844Z,31.46
2023-04-12T17:56:58.729Z,31.46
2023-04-12T17:58:31.448Z,30.93
2023-04-12T18:00:05.977Z,30.97
2023-04-12T18:01:38.151Z,31.43
2023-04-12T18:03:12.617Z,31.08
2023-04-12T18:04:44.531Z,30.99
2023-04-12T18:06:18.980Z,30.96
2023-04-12T18:07:51.454Z,31.40
2023-04-12T18:09:23.927Z,31.39
2023-04-12T18:10:56.268Z,31.06
2023-04-12T18:12:29.175Z,30.89
2023-04-12T18:14:01.405Z,31.02
2023-04-12T18:15:33.107Z,31.82
2023-04-12T18:17:04.841Z,31.46
2023-04-12T18:18:37.208Z,31.65
2023-04-12T18:20:12.163Z,31.43
2023-04-12T18:21:47.865Z,31.54
2023-04-12T18:23:19.620Z,31.66
2023-04-12T18:24:51.344Z,31.37
2023-04-12T18:26:23.525Z,31.94
2023-04-12T18:27:55.816Z,31.80
2023-04-12T18:29:28.909Z,31.48
2023-04-12T18:31:02.631Z,31.99
2023-04-12T18:32:35.201Z,31.79
2023-04-12T18:34:07.335Z,31.89
2023-04-12T18:35:40.107Z,31.61
2023-04-12T18:37:12.257Z,31.67
2023-04-12T18:38:44.367Z,31.97
2023-04-12T18:40:16.488Z,32.17
2023-04-12T18:41:48.141Z,32.09
2023-04-12T18:43:19.815Z,31.34
2023-04-12T18:44:52.243Z,31.64
2023-04-12T18:46:27.142Z,32.24
2023-04-12T18:48:00.580Z,31.77
2023-04-12T18:49:32.614Z,31.92
2023-04-12T18:51:04.561Z,32.43
2023-04-12T18:52:37.873Z,31.98
2023-04-12T18:54:13.295Z,31.78
2023-04-12T18:55:48.417Z,31.75
2023-04-12T18:57:20.023Z,32.17
2023-04-12T18:58:55.652Z,32.29
2023-04-12T19:00:30.117Z,32.34
2023-04-12T19:02:01.914Z,32.48
2023-04-12T19:03:34.190Z,32.34
2023-04-12T19:05:05.877Z,32.58
2023-04-12T19:06:38.092Z,32.13
2023-04-12T19:08:10.485Z,32.71
2023-04-12T19:09:42.405Z,32.04
2023-04-12T19:11:14.513Z,32.79
2023-04-12T19:12:46.304Z,32.41
2023-04-12T19:14:19.367Z,32.83
2023-04-12T19:15:52.605Z,32.85
2023-04-12T19:17:27.866Z,33.14
2023-04-12T19:19:00.544Z,32.72
2023-04-12T19:20:32.729Z,32.80
2023-04-12T19:22:04.358Z,32.72
2023-04-12T19:23:38.312Z,33.09
2023-04-12T19:25:10.298Z,32.75
2023-04-12T19:26:47.248Z,33.18
2023-04-12T19:28:19.224Z,33.29
2023-04-12T19:29:51.830Z,33.40
2023-04-12T19:31:23.976Z,33.55
2023-04-12T19:32:55.796Z,33.55
2023-04-12T19:34:27.771Z,33.50
2023-04-12T19:36:02.575Z,33.23
2023-04-12T19:37:35.018Z,33.38
2023-04-12T19:39:07.093Z,33.64
2023-04-12T19:40:38.708Z,33.61
2023-04-12T19:42:11.059Z,33.49
2023-04-12T19:43:43.219Z,33.63
2023-04-12T19:45:15.238Z,33.72
2023-04-12T19:46:47.884Z,33.30
2023-04-12T19:48:20.776Z,33.23
2023-04-12T19:49:52.690Z,33.30
2023-04-12T19:51:24.706Z,33.67
2023-04-12T19:52:56.654Z,33.75
2023-04-12T19:54:28.725Z,33.88
2023-04-12T19:56:00.974Z,34.04
2023-04-12T19:57:33.453Z,34.31
2023-04-12T19:59:07.016Z,34.34
2023-04-12T20:00:40.097Z,34.40
2023-04-12T20:02:12.621Z,34.22
2023-04-12T20:03:44.430Z,34.32
2023-04-12T20:05:16.822Z,34.23
2023-04-12T20:06:49.158Z,34.43
2023-04-12T20:08:20.782Z,34.65